Time;durP1;ratioP1;P1;durP2;ratioP2;P2;SDS_P1;SDS_P2;PMS_P1;PMS_P2;Temp;Humidity;BMP_temperature;BMP_pressure;BME280_temperature;BME280_humidity;BME280_pressure;Samples;Min_cycle;Max_cycle;Signal;HPM_P1;HPM_P2
2020/12/30 00:01:47;;;;;;;;;;;;;;;20.50;43.57;100694.44;5116517;28;878;-55
2020/12/30 00:04:13;;;;;;;;;;;;;;;20.61;43.31;100697.06;5116547;28;854;-47
2020/12/30 00:06:38;;;;;;;;;;;;;;;20.54;43.34;100700.19;5115626;27;1905;-55
2020/12/30 00:09:03;;;;;;;;;;;;;;;20.43;43.47;100702.31;5118241;28;1141;-45
2020/12/30 00:11:29;;;;;;;;;;;;;;;20.24;44.03;100701.50;5140641;27;794;-47
2020/12/30 00:13:54;;;;;;;;;;;;;;;20.40;43.88;100700.16;5140165;27;762;-48
2020/12/30 00:16:20;;;;;;;;;;;;;;;20.39;43.89;100692.97;5140623;27;510;-47
2020/12/30 00:18:45;;;;;;;;;;;;;;;20.57;43.34;100698.78;5140418;27;743;-49
2020/12/30 00:21:10;;;;;;;;;;;;;;;20.34;44.06;100702.19;5128482;27;992;-46
2020/12/30 00:23:36;;;;;;;;;;;;;;;20.34;44.15;100699.41;5119984;28;766;-57
2020/12/30 00:26:01;;;;;;;;;;;;;;;20.34;44.15;100707.69;5118394;28;1910;-48
2020/12/30 00:28:27;;;;;;;;;;;;;;;20.59;43.27;100704.81;5119330;27;810;-54
2020/12/30 00:30:53;;;;;;;;;;;;;;;20.39;43.83;100715.06;5119746;28;815;-53
2020/12/30 00:33:18;;;;;;;;;;;;;;;20.46;43.54;100715.50;5119627;28;866;-56
2020/12/30 00:35:43;;;;;;;;;;;;;;;20.37;43.79;100711.81;5125198;27;970;-47
2020/12/30 00:38:09;;;;;;;;;;;;;;;20.01;44.61;100712.34;5140117;27;866;-54
2020/12/30 00:40:34;;;;;;;;;;;;;;;20.24;44.24;100707.03;5140061;27;778;-46
2020/12/30 00:43:00;;;;;;;;;;;;;;;20.45;43.85;100705.56;5138686;27;760;-55
2020/12/30 00:45:25;;;;;;;;;;;;;;;20.43;43.84;100707.84;5139822;27;1905;-45
2020/12/30 00:47:51;;;;;;;;;;;;;;;20.35;44.10;100709.31;5139791;27;755;-45
2020/12/30 00:50:16;;;;;;;;;;;;;;;20.40;43.81;100711.19;5135714;27;1004;-55
2020/12/30 00:52:42;;;;;;;;;;;;;;;20.45;43.70;100716.63;5119389;27;819;-45
2020/12/30 00:55:13;;;;;;;;;;;;;;;20.37;44.06;100716.50;5119367;28;851;-52
2020/12/30 00:58:01;;;;;;;;;;;;;;;20.26;44.33;100718.59;5115707;28;1162;-46
2020/12/30 01:00:28;;;;;;;;;;;;;;;20.08;44.45;100714.75;5117928;28;1506;-49
2020/12/30 01:03:20;;;;;;;;;;;;;;;19.93;44.88;100718.53;5110082;28;1121;-46
2020/12/30 01:05:45;;;;;;;;;;;;;;;20.21;44.46;100718.69;5125438;27;1978;-46
2020/12/30 01:08:11;;;;;;;;;;;;;;;20.20;44.44;100719.81;5139432;27;854;-45
2020/12/30 01:10:36;;;;;;;;;;;;;;;20.05;44.80;100713.41;5139335;27;1133;-50
2020/12/30 01:13:02;;;;;;;;;;;;;;;20.22;44.39;100725.84;5139263;27;815;-44
2020/12/30 01:15:27;;;;;;;;;;;;;;;20.31;43.95;100724.03;5139444;27;827;-45
2020/12/30 01:17:52;;;;;;;;;;;;;;;20.38;43.83;100718.94;5139531;27;754;-46
2020/12/30 01:20:18;;;;;;;;;;;;;;;20.21;44.20;100726.97;5134950;27;940;-46
2020/12/30 01:22:43;;;;;;;;;;;;;;;20.32;43.94;100715.44;5118793;28;786;-45
2020/12/30 01:25:09;;;;;;;;;;;;;;;20.37;43.94;100722.84;5119022;27;826;-50
2020/12/30 01:27:34;;;;;;;;;;;;;;;20.34;44.32;100717.91;5118286;28;1980;-46
2020/12/30 01:29:59;;;;;;;;;;;;;;;20.26;44.34;100707.53;5118385;28;830;-50
2020/12/30 01:32:25;;;;;;;;;;;;;;;20.14;44.65;100717.09;5118500;28;882;-49
2020/12/30 01:34:50;;;;;;;;;;;;;;;20.22;44.16;100712.06;5118258;28;751;-48
2020/12/30 01:37:16;;;;;;;;;;;;;;;20.21;44.45;100724.22;5118223;27;1004;-48
2020/12/30 01:39:41;;;;;;;;;;;;;;;20.27;44.09;100717.47;5118683;27;831;-47
2020/12/30 01:42:06;;;;;;;;;;;;;;;20.44;43.66;100709.47;5118122;28;873;-45
2020/12/30 01:44:32;;;;;;;;;;;;;;;20.36;43.99;100715.69;5117948;28;960;-50
2020/12/30 01:46:57;;;;;;;;;;;;;;;20.45;43.87;100715.81;5118192;28;1913;-47
2020/12/30 01:49:23;;;;;;;;;;;;;;;20.43;43.99;100726.34;5116638;28;803;-46
2020/12/30 01:51:49;;;;;;;;;;;;;;;20.44;43.65;100716.94;5132379;27;1005;-49
2020/12/30 01:54:14;;;;;;;;;;;;;;;20.10;44.70;100713.31;5138993;27;807;-45
2020/12/30 01:56:40;;;;;;;;;;;;;;;20.17;44.54;100724.81;5138356;27;794;-48
2020/12/30 01:59:06;;;;;;;;;;;;;;;20.22;44.36;100714.81;5138295;27;592;-45
2020/12/30 02:01:32;;;;;;;;;;;;;;;20.40;43.71;100721.41;5138808;27;864;-46
2020/12/30 02:03:58;;;;;;;;;;;;;;;20.44;43.84;100715.00;5137005;27;1426;-46
2020/12/30 02:06:24;;;;;;;;;;;;;;;20.28;44.19;100713.59;5137445;27;2036;-48
2020/12/30 02:08:49;;;;;;;;;;;;;;;20.25;44.28;100719.72;5138338;27;782;-46
2020/12/30 02:11:15;;;;;;;;;;;;;;;20.36;43.92;100721.22;5138079;27;1248;-47
2020/12/30 02:13:40;;;;;;;;;;;;;;;20.33;44.08;100721.81;5138424;27;807;-47
2020/12/30 02:16:06;;;;;;;;;;;;;;;20.33;44.12;100716.28;5138184;27;785;-47
2020/12/30 02:18:31;;;;;;;;;;;;;;;20.42;43.98;100717.22;5137876;27;811;-46
2020/12/30 02:20:56;;;;;;;;;;;;;;;20.28;44.22;100705.31;5128368;27;944;-45
2020/12/30 02:23:22;;;;;;;;;;;;;;;20.02;44.95;100705.72;5117655;28;795;-49
2020/12/30 02:25:47;;;;;;;;;;;;;;;20.10;44.52;100707.78;5115586;28;1913;-48
2020/12/30 02:28:13;;;;;;;;;;;;;;;20.32;44.17;100703.59;5117296;28;870;-46
2020/12/30 02:30:38;;;;;;;;;;;;;;;20.17;44.42;100702.72;5117842;28;771;-47
2020/12/30 02:33:04;;;;;;;;;;;;;;;20.03;44.63;100701.81;5116530;28;810;-49
2020/12/30 02:35:29;;;;;;;;;;;;;;;19.80;45.51;100715.41;5120877;27;1328;-53
2020/12/30 02:37:55;;;;;;;;;;;;;;;20.03;44.75;100695.50;5137881;27;751;-57
2020/12/30 02:40:20;;;;;;;;;;;;;;;20.21;44.39;100708.44;5137519;27;766;-49
2020/12/30 02:42:46;;;;;;;;;;;;;;;20.40;43.84;100707.59;5137836;27;827;-56
2020/12/30 02:45:11;;;;;;;;;;;;;;;20.40;43.88;100699.31;5137740;27;1023;-47
2020/12/30 02:47:36;;;;;;;;;;;;;;;20.44;43.86;100698.44;5137169;27;1905;-49
2020/12/30 02:50:02;;;;;;;;;;;;;;;20.44;43.96;100681.88;5136073;27;969;-50
2020/12/30 02:52:28;;;;;;;;;;;;;;;20.53;43.74;100681.97;5117152;28;747;-48
2020/12/30 02:54:53;;;;;;;;;;;;;;;20.52;43.74;100686.69;5116721;28;830;-53
2020/12/30 02:57:19;;;;;;;;;;;;;;;20.62;43.47;100682.94;5117073;28;775;-55
2020/12/30 02:59:45;;;;;;;;;;;;;;;20.52;43.51;100680.34;5117125;28;743;-55
2020/12/30 03:02:10;;;;;;;;;;;;;;;20.79;43.06;100690.69;5116583;28;846;-55
2020/12/30 03:04:36;;;;;;;;;;;;;;;20.70;43.36;100684.19;5117071;28;794;-45
2020/12/30 03:07:01;;;;;;;;;;;;;;;20.35;44.15;100680.91;5116438;27;1909;-46
2020/12/30 03:09:27;;;;;;;;;;;;;;;20.25;44.30;100690.16;5121777;28;1086;-50
2020/12/30 03:11:52;;;;;;;;;;;;;;;20.19;44.58;100674.81;5137548;28;827;-47
2020/12/30 03:14:18;;;;;;;;;;;;;;;20.36;44.16;100674.25;5137503;27;754;-51
2020/12/30 03:16:43;;;;;;;;;;;;;;;20.40;44.13;100678.06;5137431;27;833;-46
2020/12/30 03:19:09;;;;;;;;;;;;;;;20.64;43.48;100679.88;5137317;27;865;-55
2020/12/30 03:21:34;;;;;;;;;;;;;;;20.58;43.43;100675.53;5122432;27;952;-46
2020/12/30 03:24:00;;;;;;;;;;;;;;;20.60;43.43;100676.06;5116810;28;850;-51
2020/12/30 03:26:25;;;;;;;;;;;;;;;20.56;43.65;100670.31;5116557;28;1973;-46
2020/12/30 03:28:51;;;;;;;;;;;;;;;20.57;43.78;100668.41;5116715;28;784;-50
2020/12/30 03:31:16;;;;;;;;;;;;;;;20.44;44.04;100676.34;5116683;28;806;-46
2020/12/30 03:33:41;;;;;;;;;;;;;;;20.26;44.36;100671.66;5116550;28;830;-45
2020/12/30 03:36:07;;;;;;;;;;;;;;;20.22;44.60;100678.91;5116271;27;1008;-49
2020/12/30 03:38:32;;;;;;;;;;;;;;;20.34;44.29;100669.03;5116654;28;842;-48
2020/12/30 03:40:58;;;;;;;;;;;;;;;20.47;43.95;100664.69;5116484;28;743;-52
2020/12/30 03:43:23;;;;;;;;;;;;;;;20.47;43.77;100670.19;5116467;28;752;-47
2020/12/30 03:45:48;;;;;;;;;;;;;;;20.37;44.18;100675.91;5119299;28;1906;-49
2020/12/30 03:48:14;;;;;;;;;;;;;;;20.45;44.03;100671.63;5120295;28;822;-47
2020/12/30 03:50:39;;;;;;;;;;;;;;;20.34;44.12;100682.84;5119924;27;960;-48
2020/12/30 03:53:05;;;;;;;;;;;;;;;20.60;43.76;100681.59;5120600;28;798;-59
2020/12/30 03:55:30;;;;;;;;;;;;;;;20.52;43.90;100685.84;5120147;28;763;-55
2020/12/30 03:57:55;;;;;;;;;;;;;;;20.44;44.14;100669.97;5120133;28;510;-56
2020/12/30 04:00:21;;;;;;;;;;;;;;;20.25;44.36;100681.88;5120358;28;803;-54
2020/12/30 04:02:46;;;;;;;;;;;;;;;20.34;44.45;100659.91;5120298;28;794;-56
2020/12/30 04:05:12;;;;;;;;;;;;;;;20.53;43.87;100665.41;5119645;27;977;-46
2020/12/30 04:07:37;;;;;;;;;;;;;;;20.41;44.09;100657.63;5120111;28;1913;-47
2020/12/30 04:10:03;;;;;;;;;;;;;;;20.03;44.94;100668.69;5130139;27;1196;-48
2020/12/30 04:12:28;;;;;;;;;;;;;;;20.16;44.75;100665.19;5140510;27;795;-44
2020/12/30 04:14:54;;;;;;;;;;;;;;;20.24;44.38;100668.38;5133152;27;937;-49
2020/12/30 04:17:19;;;;;;;;;;;;;;;20.40;44.25;100663.41;5119258;28;778;-56
2020/12/30 04:19:44;;;;;;;;;;;;;;;20.45;44.03;100657.81;5119776;28;743;-47
2020/12/30 04:22:10;;;;;;;;;;;;;;;20.49;43.99;100650.56;5119524;27;1008;-55
2020/12/30 04:24:35;;;;;;;;;;;;;;;20.52;43.94;100648.03;5119633;27;954;-46
2020/12/30 04:27:01;;;;;;;;;;;;;;;20.41;44.12;100662.31;5119443;28;1988;-56
2020/12/30 04:29:26;;;;;;;;;;;;;;;20.51;43.64;100653.84;5119807;28;798;-57
2020/12/30 04:31:51;;;;;;;;;;;;;;;20.52;43.76;100653.56;5119761;28;778;-53
2020/12/30 04:34:17;;;;;;;;;;;;;;;20.55;43.67;100657.63;5119515;28;825;-45
2020/12/30 04:36:42;;;;;;;;;;;;;;;20.39;44.13;100659.84;5119437;27;1050;-46
2020/12/30 04:39:08;;;;;;;;;;;;;;;20.16;44.82;100667.13;5119780;28;778;-46
2020/12/30 04:41:34;;;;;;;;;;;;;;;19.87;45.40;100659.84;5119458;28;819;-50
2020/12/30 04:44:00;;;;;;;;;;;;;;;20.42;44.15;100656.47;5119338;28;770;-51
2020/12/30 04:46:26;;;;;;;;;;;;;;;20.40;44.16;100668.94;5118907;28;1981;-46
2020/12/30 04:48:51;;;;;;;;;;;;;;;20.54;43.85;100668.97;5118053;28;759;-58
2020/12/30 04:51:16;;;;;;;;;;;;;;;20.60;43.73;100670.53;5129018;27;941;-59
2020/12/30 04:53:42;;;;;;;;;;;;;;;20.30;44.35;100673.53;5138396;27;763;-52
2020/12/30 04:56:07;;;;;;;;;;;;;;;20.10;44.98;100682.94;5138068;27;738;-55
2020/12/30 04:58:33;;;;;;;;;;;;;;;20.36;44.24;100677.03;5138044;27;830;-48
2020/12/30 05:00:58;;;;;;;;;;;;;;;20.41;44.02;100665.91;5139445;27;881;-55
2020/12/30 05:03:28;;;;;;;;;;;;;;;20.47;44.00;100667.44;5138098;27;910;-56
2020/12/30 05:05:53;;;;;;;;;;;;;;;20.55;43.86;100673.38;5130598;27;1913;-51
2020/12/30 05:08:19;;;;;;;;;;;;;;;20.68;43.46;100669.88;5118715;27;763;-59
2020/12/30 05:10:45;;;;;;;;;;;;;;;20.63;43.49;100675.47;5135082;27;1142;-49
2020/12/30 05:13:11;;;;;;;;;;;;;;;20.66;43.41;100677.59;5139588;27;806;-55
2020/12/30 05:15:36;;;;;;;;;;;;;;;20.37;44.12;100678.66;5139117;27;814;-51
2020/12/30 05:18:05;;;;;;;;;;;;;;;20.02;45.02;100669.84;5139244;27;746;-48
2020/12/30 05:20:35;;;;;;;;;;;;;;;20.09;45.04;100673.03;5133667;27;988;-47
2020/12/30 05:23:10;;;;;;;;;;;;;;;20.27;44.43;100674.13;5118392;28;838;-59
2020/12/30 05:25:36;;;;;;;;;;;;;;;20.34;44.51;100666.28;5118563;28;1973;-56
2020/12/30 05:28:04;;;;;;;;;;;;;;;20.37;44.61;100664.03;5118629;28;744;-59
2020/12/30 05:30:30;;;;;;;;;;;;;;;20.50;44.36;100661.31;5118291;28;870;-56
2020/12/30 05:32:56;;;;;;;;;;;;;;;20.52;44.14;100663.75;5118370;28;794;-47
2020/12/30 05:35:21;;;;;;;;;;;;;;;20.44;44.38;100662.53;5118056;27;957;-58
2020/12/30 05:37:48;;;;;;;;;;;;;;;20.40;44.39;100661.50;5118224;28;795;-49
2020/12/30 05:40:20;;;;;;;;;;;;;;;20.47;44.17;100659.16;5117263;28;863;-46
2020/12/30 05:42:46;;;;;;;;;;;;;;;20.44;44.35;100658.94;5118741;28;778;-46
2020/12/30 05:45:18;;;;;;;;;;;;;;;20.60;43.94;100653.97;5117667;28;1049;-49
2020/12/30 05:47:44;;;;;;;;;;;;;;;20.66;43.75;100652.75;5118103;28;1902;-46
2020/12/30 05:50:12;;;;;;;;;;;;;;;20.57;44.04;100654.59;5118074;27;969;-48
2020/12/30 05:52:38;;;;;;;;;;;;;;;20.57;44.10;100643.53;5117959;28;846;-53
2020/12/30 05:55:03;;;;;;;;;;;;;;;20.49;44.31;100651.38;5118420;28;739;-46
2020/12/30 05:57:33;;;;;;;;;;;;;;;20.65;43.94;100648.34;5116816;28;1451;-56
2020/12/30 05:59:59;;;;;;;;;;;;;;;20.70;43.63;100653.81;5130478;27;998;-60
2020/12/30 06:02:25;;;;;;;;;;;;;;;20.51;44.17;100646.38;5138194;27;878;-47
2020/12/30 06:04:51;;;;;;;;;;;;;;;20.71;43.77;100649.13;5138288;27;878;-59
2020/12/30 06:07:17;;;;;;;;;;;;;;;20.65;43.62;100651.94;5116387;27;1902;-48
2020/12/30 06:09:42;;;;;;;;;;;;;;;20.66;43.91;100652.75;5125075;27;1122;-57
2020/12/30 06:12:08;;;;;;;;;;;;;;;20.35;44.64;100653.28;5136825;27;867;-59
2020/12/30 06:14:33;;;;;;;;;;;;;;;20.38;44.50;100660.16;5137799;27;739;-47
2020/12/30 06:17:02;;;;;;;;;;;;;;;20.15;45.14;100658.03;5138058;27;736;-53
2020/12/30 06:19:28;;;;;;;;;;;;;;;20.22;44.79;100654.06;5137682;27;851;-47
2020/12/30 06:21:53;;;;;;;;;;;;;;;20.31;44.86;100657.78;5120213;27;949;-49
2020/12/30 06:24:19;;;;;;;;;;;;;;;20.38;44.60;100657.38;5117772;28;818;-55
2020/12/30 06:26:44;;;;;;;;;;;;;;;20.56;44.18;100666.75;5117160;28;1905;-57
2020/12/30 06:29:14;;;;;;;;;;;;;;;20.57;44.01;100665.63;5125042;27;833;-50
2020/12/30 06:31:41;;;;;;;;;;;;;;;20.53;44.05;100657.13;5137940;27;811;-59
2020/12/30 06:34:06;;;;;;;;;;;;;;;20.45;44.11;100663.34;5137818;27;793;-59
2020/12/30 06:36:31;;;;;;;;;;;;;;;20.61;44.10;100667.47;5136013;27;945;-45
2020/12/30 06:38:57;;;;;;;;;;;;;;;20.58;44.11;100672.78;5137712;27;849;-59
2020/12/30 06:41:25;;;;;;;;;;;;;;;20.63;43.96;100675.47;5137630;27;767;-46
2020/12/30 06:43:50;;;;;;;;;;;;;;;20.63;44.02;100678.22;5138190;27;751;-59
2020/12/30 06:46:21;;;;;;;;;;;;;;;20.59;43.92;100678.00;5137269;27;1894;-56
2020/12/30 06:48:56;;;;;;;;;;;;;;;20.66;43.93;100691.41;5137461;27;806;-47
2020/12/30 06:51:22;;;;;;;;;;;;;;;20.57;44.03;100696.81;5124447;27;944;-47
2020/12/30 06:53:51;;;;;;;;;;;;;;;20.63;44.07;100681.78;5117684;28;758;-59
2020/12/30 06:56:34;;;;;;;;;;;;;;;20.57;44.03;100690.50;5117011;28;783;-59
2020/12/30 06:58:59;;;;;;;;;;;;;;;20.70;43.89;100675.91;5116784;28;850;-59
2020/12/30 07:01:25;;;;;;;;;;;;;;;20.73;43.75;100675.28;5117066;28;738;-50
2020/12/30 07:03:50;;;;;;;;;;;;;;;20.60;44.06;100676.88;5116785;28;727;-59
2020/12/30 07:06:42;;;;;;;;;;;;;;;20.62;44.02;100680.16;5116371;27;1906;-56
2020/12/30 07:09:07;;;;;;;;;;;;;;;20.75;43.82;100686.88;5117274;28;1183;-59
2020/12/30 07:11:39;;;;;;;;;;;;;;;20.59;44.05;100680.75;5137458;27;774;-45
2020/12/30 07:14:07;;;;;;;;;;;;;;;20.79;43.63;100676.84;5137199;27;946;-44
2020/12/30 07:16:33;;;;;;;;;;;;;;;20.83;43.52;100680.66;5137174;27;727;-46
2020/12/30 07:18:59;;;;;;;;;;;;;;;20.91;43.28;100687.41;5138815;27;754;-49
2020/12/30 07:21:24;;;;;;;;;;;;;;;20.79;43.54;100687.06;5140903;27;996;-46
2020/12/30 07:23:49;;;;;;;;;;;;;;;20.55;44.34;100679.72;5141877;27;758;-58
2020/12/30 07:26:18;;;;;;;;;;;;;;;20.68;43.97;100683.69;5140283;27;1964;-45
2020/12/30 07:28:44;;;;;;;;;;;;;;;20.65;44.06;100687.00;5141229;27;838;-47
2020/12/30 07:31:10;;;;;;;;;;;;;;;20.52;44.39;100691.38;5141414;27;826;-59
2020/12/30 07:33:36;;;;;;;;;;;;;;;20.58;44.32;100689.34;5141327;27;842;-56
2020/12/30 07:36:02;;;;;;;;;;;;;;;20.65;43.86;100679.56;5131091;27;952;-47
2020/12/30 07:38:28;;;;;;;;;;;;;;;20.67;44.11;100676.50;5120443;28;511;-46
2020/12/30 07:41:09;;;;;;;;;;;;;;;20.85;43.58;100683.91;5120748;28;853;-47
2020/12/30 07:43:44;;;;;;;;;;;;;;;20.88;43.40;100670.63;5120361;28;814;-46
2020/12/30 07:46:16;;;;;;;;;;;;;;;20.85;43.64;100678.38;5120207;28;1914;-59
2020/12/30 07:48:41;;;;;;;;;;;;;;;20.94;43.23;100692.31;5120470;28;858;-54
2020/12/30 07:51:07;;;;;;;;;;;;;;;20.96;43.37;100683.75;5128786;27;1024;-55
2020/12/30 07:53:32;;;;;;;;;;;;;;;20.84;43.46;100685.03;5140913;27;815;-52
2020/12/30 07:55:58;;;;;;;;;;;;;;;20.77;43.69;100681.84;5140059;27;849;-52
2020/12/30 07:58:23;;;;;;;;;;;;;;;20.81;43.67;100682.88;5139737;27;893;-56
2020/12/30 08:00:48;;;;;;;;;;;;;;;20.89;43.61;100681.38;5139594;27;763;-57
2020/12/30 08:03:14;;;;;;;;;;;;;;;20.83;43.61;100688.94;5139653;27;743;-45
2020/12/30 08:05:43;;;;;;;;;;;;;;;20.97;43.23;100677.91;5133226;27;1011;-46
2020/12/30 08:08:09;;;;;;;;;;;;;;;20.88;43.64;100684.44;5120086;28;751;-46
2020/12/30 08:10:34;;;;;;;;;;;;;;;20.83;43.90;100671.53;5133627;27;1106;-51
2020/12/30 08:13:09;;;;;;;;;;;;;;;21.02;43.16;100674.22;5140171;27;866;-47
2020/12/30 08:15:34;;;;;;;;;;;;;;;20.86;43.72;100684.75;5140542;27;827;-54
2020/12/30 08:18:00;;;;;;;;;;;;;;;20.96;43.55;100683.75;5140424;27;846;-50
2020/12/30 08:20:25;;;;;;;;;;;;;;;20.96;43.53;100681.78;5134364;27;810;-53
2020/12/30 08:22:57;;;;;;;;;;;;;;;20.96;43.39;100680.97;5131465;27;830;-51
2020/12/30 08:25:22;;;;;;;;;;;;;;;20.66;44.23;100669.31;5140035;27;838;-48
2020/12/30 08:27:47;;;;;;;;;;;;;;;20.80;43.80;100677.66;5139679;27;1975;-57
2020/12/30 08:30:13;;;;;;;;;;;;;;;20.90;43.83;100673.88;5138230;27;735;-45
2020/12/30 08:32:47;;;;;;;;;;;;;;;20.90;43.68;100673.88;5145081;27;1219;-50
2020/12/30 08:35:16;;;;;;;;;;;;;;;20.92;43.70;100671.66;5119153;27;953;-46
2020/12/30 08:37:42;;;;;;;;;;;;;;;20.90;43.75;100674.72;5119410;28;755;-52
2020/12/30 08:40:28;;;;;;;;;;;;;;;20.84;43.99;100676.75;5119554;28;870;-45
2020/12/30 08:42:53;;;;;;;;;;;;;;;21.00;43.42;100670.94;5117419;28;852;-55
2020/12/30 08:45:26;;;;;;;;;;;;;;;20.98;43.50;100651.06;5119378;28;995;-52
2020/12/30 08:47:55;;;;;;;;;;;;;;;20.96;43.59;100654.16;5119125;28;1980;-52
2020/12/30 08:50:23;;;;;;;;;;;;;;;20.91;43.69;100653.44;5118695;27;960;-56
2020/12/30 08:52:48;;;;;;;;;;;;;;;20.99;43.64;100649.94;5119591;28;759;-57
2020/12/30 08:55:14;;;;;;;;;;;;;;;21.00;43.57;100648.84;5119167;28;798;-58
2020/12/30 08:57:46;;;;;;;;;;;;;;;20.95;43.71;100651.69;5118775;28;759;-47
2020/12/30 09:00:11;;;;;;;;;;;;;;;21.24;42.87;100645.84;5119195;28;827;-48
2020/12/30 09:02:36;;;;;;;;;;;;;;;21.13;43.17;100642.47;5118915;28;727;-46
2020/12/30 09:05:02;;;;;;;;;;;;;;;21.26;43.17;100631.72;5117491;27;953;-48
2020/12/30 09:07:27;;;;;;;;;;;;;;;21.09;43.50;100637.88;5118927;28;1980;-47
2020/12/30 09:10:09;;;;;;;;;;;;;;;21.09;43.54;100638.69;5127754;27;1153;-50
2020/12/30 09:12:34;;;;;;;;;;;;;;;;;;5139449;27;739;-46
2020/12/30 09:14:59;;;;;;;;;;;;;;;21.16;43.34;100616.16;5139432;27;838;-57
2020/12/30 09:17:25;;;;;;;;;;;;;;;21.13;43.54;100617.59;5139066;27;763;-44
2020/12/30 09:19:51;;;;;;;;;;;;;;;21.17;43.37;100623.34;5139030;27;810;-54
2020/12/30 09:22:16;;;;;;;;;;;;;;;21.15;43.45;100623.66;5118740;27;1004;-46
2020/12/30 09:24:42;;;;;;;;;;;;;;;21.26;43.00;100623.41;5118456;28;736;-48
2020/12/30 09:27:14;;;;;;;;;;;;;;;21.15;43.61;100622.81;5118238;27;1913;-50
2020/12/30 09:29:40;;;;;;;;;;;;;;;21.11;43.77;100621.78;5118757;28;762;-47
2020/12/30 09:32:05;;;;;;;;;;;;;;;21.25;43.23;100619.00;5118398;28;811;-58
2020/12/30 09:34:30;;;;;;;;;;;;;;;21.30;43.28;100632.72;5118422;28;762;-57
2020/12/30 09:36:56;;;;;;;;;;;;;;;21.26;43.19;100613.16;5117853;27;965;-48
2020/12/30 09:39:22;;;;;;;;;;;;;;;21.26;43.25;100615.94;5117107;28;787;-52
2020/12/30 09:41:48;;;;;;;;;;;;;;;21.27;43.40;100605.69;5117081;27;1218;-56
2020/12/30 09:44:13;;;;;;;;;;;;;;;21.31;43.31;100607.53;5118125;28;795;-57
2020/12/30 09:46:49;;;;;;;;;;;;;;;21.31;43.31;100595.66;5117899;28;1905;-52
2020/12/30 09:49:15;;;;;;;;;;;;;;;21.32;43.32;100602.81;5117956;28;770;-48
2020/12/30 09:51:40;;;;;;;;;;;;;;;21.24;43.42;100596.06;5117900;27;969;-56
2020/12/30 09:54:05;;;;;;;;;;;;;;;21.37;43.16;100591.63;5117943;28;886;-55
2020/12/30 09:56:31;;;;;;;;;;;;;;;21.25;43.31;100583.06;5117622;28;779;-49
2020/12/30 09:58:56;;;;;;;;;;;;;;;20.90;44.35;100580.75;5117817;28;806;-51
2020/12/30 10:01:22;;;;;;;;;;;;;;;20.97;43.94;100580.31;5117800;28;811;-47
2020/12/30 10:03:47;;;;;;;;;;;;;;;20.40;45.41;100581.41;5117723;28;755;-44
2020/12/30 10:06:13;;;;;;;;;;;;;;;20.64;44.88;100572.94;5117105;27;1976;-44
2020/12/30 10:08:39;;;;;;;;;;;;;;;20.92;44.20;100572.16;5117760;28;783;-53
2020/12/30 10:11:05;;;;;;;;;;;;;;;20.93;44.13;100568.25;5136801;27;1111;-45
2020/12/30 10:13:30;;;;;;;;;;;;;;;20.88;44.30;100560.06;5137886;27;819;-55
2020/12/30 10:15:56;;;;;;;;;;;;;;;21.00;43.84;100563.16;5138627;27;814;-48
2020/12/30 10:18:21;;;;;;;;;;;;;;;21.08;43.70;100556.84;5139002;27;704;-57
2020/12/30 10:20:47;;;;;;;;;;;;;;;21.05;43.94;100549.19;5129829;27;948;-58
2020/12/30 10:23:12;;;;;;;;;;;;;;;21.09;43.81;100555.75;5117528;27;819;-56
2020/12/30 10:25:37;;;;;;;;;;;;;;;21.40;43.00;100549.53;5117522;28;822;-53
2020/12/30 10:28:03;;;;;;;;;;;;;;;21.03;43.90;100540.41;5116824;28;1914;-52
2020/12/30 10:30:28;;;;;;;;;;;;;;;21.02;44.05;100542.34;5117334;28;811;-55
2020/12/30 10:32:55;;;;;;;;;;;;;;;21.05;43.81;100537.31;5117504;28;866;-52
2020/12/30 10:35:20;;;;;;;;;;;;;;;21.18;43.44;100550.28;5116739;27;957;-49
2020/12/30 10:37:46;;;;;;;;;;;;;;;21.26;43.29;100538.50;5117304;28;806;-54
2020/12/30 10:40:11;;;;;;;;;;;;;;;21.27;43.21;100534.59;5117364;28;799;-59
2020/12/30 10:42:37;;;;;;;;;;;;;;;21.25;43.36;100530.50;5116711;28;814;-50
2020/12/30 10:45:02;;;;;;;;;;;;;;;21.23;43.51;100530.03;5117164;28;1078;-47
2020/12/30 10:47:28;;;;;;;;;;;;;;;21.20;43.57;100535.03;5117114;28;1898;-50
2020/12/30 10:49:53;;;;;;;;;;;;;;;21.30;43.19;100530.41;5116652;28;743;-58
2020/12/30 10:52:19;;;;;;;;;;;;;;;21.33;43.32;100533.34;5116930;27;949;-56
2020/12/30 10:54:44;;;;;;;;;;;;;;;21.34;43.18;100536.94;5117015;28;767;-51
2020/12/30 10:57:09;;;;;;;;;;;;;;;20.99;43.92;100536.63;5118442;27;846;-59
2020/12/30 10:59:35;;;;;;;;;;;;;;;20.85;44.29;100526.38;5137714;27;803;-54
2020/12/30 11:02:02;;;;;;;;;;;;;;;20.66;44.71;100536.69;5135666;27;1207;-53
2020/12/30 11:04:28;;;;;;;;;;;;;;;20.77;44.66;100538.16;5141254;27;874;-58
2020/12/30 11:06:53;;;;;;;;;;;;;;;20.85;44.41;100544.94;5120281;27;1910;-52
2020/12/30 11:09:19;;;;;;;;;;;;;;;21.03;43.81;100534.88;5137349;27;1101;-52
2020/12/30 11:11:45;;;;;;;;;;;;;;;21.17;43.70;100527.38;5137082;27;786;-52
2020/12/30 11:14:10;;;;;;;;;;;;;;;21.18;43.56;100526.25;5136205;28;1323;-48
2020/12/30 11:16:36;;;;;;;;;;;;;;;21.38;43.06;100529.66;5137236;27;818;-55
2020/12/30 11:19:01;;;;;;;;;;;;;;;21.17;43.37;100535.66;5137007;28;815;-53
2020/12/30 11:21:27;;;;;;;;;;;;;;;21.15;43.80;100526.88;5123940;27;956;-59
2020/12/30 11:23:52;;;;;;;;;;;;;;;21.33;43.18;100518.72;5116751;28;911;-48
2020/12/30 11:26:17;;;;;;;;;;;;;;;;;;5128022;27;1973;-50
2020/12/30 11:28:43;;;;;;;;;;;;;;;21.03;44.04;100510.00;5137258;28;752;-49
2020/12/30 11:31:08;;;;;;;;;;;;;;;21.07;43.93;100508.25;5137371;27;742;-58
2020/12/30 11:33:34;;;;;;;;;;;;;;;21.11;43.69;100509.25;5136889;27;873;-53
2020/12/30 11:35:59;;;;;;;;;;;;;;;21.26;43.32;100502.53;5127838;27;1003;-57
2020/12/30 11:38:25;;;;;;;;;;;;;;;21.14;43.61;100513.31;5116982;28;799;-58
2020/12/30 11:40:50;;;;;;;;;;;;;;;21.23;43.25;100505.94;5116605;28;792;-47
2020/12/30 11:43:16;;;;;;;;;;;;;;;21.29;43.32;100510.22;5137364;28;786;-50
2020/12/30 11:45:41;;;;;;;;;;;;;;;21.41;42.99;100506.91;5136912;28;1022;-57
2020/12/30 11:48:06;;;;;;;;;;;;;;;21.22;43.43;100496.00;5136761;28;1909;-49
2020/12/30 11:50:32;;;;;;;;;;;;;;;21.33;43.25;100500.16;5135745;28;1207;-50
2020/12/30 11:52:58;;;;;;;;;;;;;;;21.52;42.64;100497.25;5137054;27;833;-48
2020/12/30 11:55:24;;;;;;;;;;;;;;;21.50;42.65;100498.66;5136858;27;830;-52
2020/12/30 11:57:49;;;;;;;;;;;;;;;21.53;42.65;100501.66;5137162;27;798;-53
2020/12/30 12:00:15;;;;;;;;;;;;;;;21.45;42.86;100491.31;5136924;27;755;-53
2020/12/30 12:02:40;;;;;;;;;;;;;;;21.23;43.26;100483.00;5137146;27;1484;-49
2020/12/30 12:05:09;;;;;;;;;;;;;;;21.18;43.48;100489.47;5151111;27;865;-49
2020/12/30 12:07:34;;;;;;;;;;;;;;;21.25;43.27;100476.03;5133952;27;1971;-49
2020/12/30 12:10:00;;;;;;;;;;;;;;;20.88;44.22;100488.22;5140481;27;1137;-51
2020/12/30 12:12:25;;;;;;;;;;;;;;;20.91;44.01;100493.13;5142413;27;1485;-52
2020/12/30 12:14:51;;;;;;;;;;;;;;;20.45;45.24;100497.63;5140783;27;802;-50
2020/12/30 12:17:16;;;;;;;;;;;;;;;20.46;45.43;100496.50;5155032;27;806;-50
2020/12/30 12:19:42;;;;;;;;;;;;;;;20.83;44.35;100503.78;5161401;27;743;-51
2020/12/30 12:22:07;;;;;;;;;;;;;;;20.93;44.17;100507.44;5132853;27;959;-47
2020/12/30 12:24:32;;;;;;;;;;;;;;;21.03;43.82;100502.50;5140262;27;806;-50
2020/12/30 12:26:58;;;;;;;;;;;;;;;21.09;43.78;100499.63;5140477;27;1894;-52
2020/12/30 12:29:35;;;;;;;;;;;;;;;20.86;43.74;100505.13;5150435;27;793;-52
2020/12/30 12:32:04;;;;;;;;;;;;;;;20.86;44.23;100491.31;5160882;27;862;-47
2020/12/30 12:34:29;;;;;;;;;;;;;;;20.97;44.13;100491.88;5161093;27;766;-50
2020/12/30 12:36:55;;;;;;;;;;;;;;;20.95;44.06;100488.63;5125975;27;967;-50
2020/12/30 12:39:20;;;;;;;;;;;;;;;21.15;43.38;100493.69;5119428;28;739;-49
2020/12/30 12:41:45;;;;;;;;;;;;;;;20.93;44.20;100496.38;5119528;28;818;-49
2020/12/30 12:44:11;;;;;;;;;;;;;;;21.00;43.82;100491.28;5119649;28;751;-51
2020/12/30 12:46:36;;;;;;;;;;;;;;;21.12;43.61;100488.75;5128011;27;1914;-49
2020/12/30 12:49:02;;;;;;;;;;;;;;;21.14;43.40;100486.53;5140007;27;862;-50
2020/12/30 12:51:28;;;;;;;;;;;;;;;21.25;43.18;100486.28;5126672;27;968;-49